"WATCHING THE WEATHER TO PROTECT LIFE AND PROPERTY"


Aviation
Satellite (InfraRed)


TNCA 252300Z 08017KT 9999 FEW017 29/24 Q1009 NOSIG
TNCB 252255Z AUTO 09012KT 9999 FEW017/// 28/24 Q1010
TNCC 252258Z 10012KT 9999 FEW018 28/23 Q1010 NOSIG